ADDS TAF Board (Experimental) INFO Settings
IDs: Format: Expanded Condensed

KIAD - Washington/Dulles In, VA, US

Issued at 2321 UTC 25 Jul 2016
Updated at 0231 UTC 26 Jul 2016
Time0152Z 26/03Z 26/04Z 26/05Z 26/06Z 26/07Z 26/08Z 26/09Z 26/10Z 26/11Z 26/12Z 26/13Z 26/14Z 26/15Z
Type OBS PRVL PRVL PRVL PRVL PRVL PRVL PRVL PRVL PRVL PRVL PRVL PRVL PRVL
VIS 10 >6 >6 >6 >6 >6 >6 >6 >6 >6 >6 >6 >6 >6
CIG 130 -- -- -- 60 60 60 60 60 60 60 60 60 60
Cover OVC SCT SCT SCT BKN BKN BKN BKN BKN BKN BKN BKN BKN BKN
FltCat VFR VFR VFR VFR VFR VFR VFR VFR VFR VFR VFR VFR VFR VFR
WX -- VCSH VCSH VCSH -- -- -- -- -- -- -- -- -- --
WDir VRB 240 240 240 VRB VRB VRB VRB VRB VRB VRB 300 300 300
WSpd 0 5 5 5 3 3 3 3 3 3 3 6 6 6
WGst -- -- -- -- -- -- -- -- -- -- -- -- -- --
R01/19
XWnd VRB 4 4 4 VRB VRB VRB VRB VRB VRB VRB 5 5 5
HWnd VRB -3 -3 -3 VRB VRB VRB VRB VRB VRB VRB 3 3 3
R12/30
XWnd VRB -4 -4 -4 VRB VRB VRB VRB VRB VRB VRB 1 1 1
HWnd VRB -3 -3 -3 VRB VRB VRB VRB VRB VRB VRB -6 -6 -6

Raw TAF
KIAD 252321Z 2600/2706 24005KT P6SM VCSH SCT060 SCT200
  FM260600 VRB03KT P6SM BKN060
  FM261300 30006KT P6SM BKN060


Raw METAR
KIAD 260152Z 00000KT 10SM SCT070 BKN130 BKN180 OVC250 29/23 A2992 RMK AO2 SLP128 T02890228
KIAD 260052Z 00000KT 10SM SCT060 SCT085 BKN180 BKN230 29/23 A2989 RMK AO2 SLP118 CB DSNT SW T02940228
KIAD 252352Z 20003KT 10SM FEW044 SCT060 SCT085 BKN180 BKN250 30/23 A2988

METAR Board
Radar Display
Forecast Discussion

TAF Board Legend

Potential Impact
Threat None Slight Moderate High
Visibility (sm) ≥5.1 5.1>X≥3 3>X≥1 <1
Ceiling (100 ft) ≥30.1 30.1>X≥10 10>X≥5 <5
Wind Speed (kt) <10 10≤X<20 20≤X<30 ≥30
Wind Gust (kt) <15 15≤X<25 25≤X<35 ≥35
Weather No Wx Reported VCTS,-TS,-FZRA,SN TS,FZRA +TS,+FZRA,+SN